Erin, Canada
Current Conditions -  °F | °C
As of 4:00 AM on Saturday 20 Dec 2014 (Local Time) from CYYZ Reporting Station
Few Clouds Few Clouds  
Wind Chill: 14°   Ceiling: Unl
Heat Index: 21°   Visibility: 15mi
Dew Point: 18°   Wind: 6mph
Humidity: 86%   Direction: 360°N
Pressure: 30.25"   Gusts: NA
Location:  43.77°N, 80.07°W
Report Text: CYYZ 200900Z 36005KT 15SM FEW025 M06/M08 A3025 RMK SC1 SLP253
Loading
Personal Weather Stations






























Interactive Weather Map New forecast layout! Learn more

10-Day Weather Forecast

Advertisements
Track Severe Weather on mobile